Time;durP1;ratioP1;P1;durP2;ratioP2;P2;SDS_P1;SDS_P2;PMS_P1;PMS_P2;Temp;Humidity;BMP_temperature;BMP_pressure;BME280_temperature;BME280_humidity;BME280_pressure;Samples;Min_cycle;Max_cycle;Signal;HPM_P1;HPM_P2
2022/03/02 00:01:48;;;;;;;4.07;2.95;;;23.30;27.30;;;;;;5111976;28;20788;-71
2022/03/02 00:04:13;;;;;;;3.83;2.95;;;23.30;27.30;;;;;;5111473;28;20416;-71
2022/03/02 00:06:39;;;;;;;3.90;3.03;;;23.30;27.30;;;;;;5110506;28;20395;-71
2022/03/02 00:09:05;;;;;;;4.13;2.95;;;23.30;27.30;;;;;;5111842;28;20419;-71
2022/03/02 00:11:30;;;;;;;3.42;2.83;;;23.30;27.30;;;;;;5112009;28;20814;-71
2022/03/02 00:13:58;;;;;;;3.85;2.65;;;23.30;27.30;;;;;;5110635;28;20452;-71
2022/03/02 00:16:24;;;;;;;4.45;2.85;;;23.20;27.30;;;;;;5110138;28;20392;-71
2022/03/02 00:18:50;;;;;;;3.83;2.67;;;23.20;27.30;;;;;;5111792;28;20388;-71
2022/03/02 00:21:16;;;;;;;3.50;2.90;;;23.20;27.30;;;;;;5111783;28;20853;-71
2022/03/02 00:23:42;;;;;;;3.75;2.88;;;23.20;27.30;;;;;;5111709;28;20495;-71
2022/03/02 00:26:08;;;;;;;3.92;2.50;;;23.20;27.40;;;;;;5111808;28;20376;-71
2022/03/02 00:28:34;;;;;;;3.83;2.70;;;23.20;27.30;;;;;;5111296;28;20475;-71
2022/03/02 00:31:00;;;;;;;5.05;2.83;;;23.20;27.30;;;;;;5111719;28;20471;-71
2022/03/02 00:33:25;;;;;;;3.70;3.10;;;23.20;27.30;;;;;;5111652;28;20495;-71
2022/03/02 00:35:51;;;;;;;3.40;2.70;;;23.20;27.40;;;;;;5111672;28;20437;-71
2022/03/02 00:38:17;;;;;;;3.67;2.85;;;23.20;27.30;;;;;;5111332;28;20465;-71
2022/03/02 00:40:43;;;;;;;3.80;2.70;;;23.20;27.30;;;;;;5111421;28;20877;-71
2022/03/02 00:43:09;;;;;;;4.07;3.00;;;23.10;27.20;;;;;;5111482;28;20400;-71
2022/03/02 00:45:35;;;;;;;3.53;2.87;;;23.10;27.20;;;;;;5110055;28;20465;-71
2022/03/02 00:48:03;;;;;;;3.80;2.77;;;23.10;27.20;;;;;;5111623;28;20410;-71
2022/03/02 00:50:29;;;;;;;3.33;2.70;;;23.10;27.20;;;;;;5112565;28;20399;-72
2022/03/02 00:52:56;;;;;;;3.40;2.60;;;23.10;27.20;;;;;;5115375;28;20396;-71
2022/03/02 00:55:22;;;;;;;5.20;3.00;;;23.00;27.30;;;;;;5114081;28;20476;-72
2022/03/02 00:57:48;;;;;;;3.47;3.00;;;23.00;27.20;;;;;;5115483;28;20875;-72
2022/03/02 01:00:14;;;;;;;3.27;2.50;;;23.00;27.30;;;;;;5115396;28;20388;-72
2022/03/02 01:02:40;;;;;;;3.50;2.75;;;23.00;27.30;;;;;;5115310;28;20862;-71
2022/03/02 01:05:07;;;;;;;3.63;2.50;;;23.00;27.30;;;;;;5115277;28;20495;-71
2022/03/02 01:07:34;;;;;;;4.00;2.33;;;23.00;27.30;;;;;;5115314;28;20855;-71
2022/03/02 01:10:00;;;;;;;4.10;2.58;;;22.90;27.30;;;;;;5115145;28;20438;-71
2022/03/02 01:12:26;;;;;;;4.70;2.53;;;23.00;27.30;;;;;;5113434;28;20884;-71
2022/03/02 01:14:52;;;;;;;3.50;2.80;;;22.90;27.30;;;;;;5113826;28;20400;-71
2022/03/02 01:17:18;;;;;;;3.83;2.67;;;22.90;27.30;;;;;;5115018;28;20471;-71
2022/03/02 01:19:44;;;;;;;3.72;2.53;;;22.90;27.40;;;;;;5115140;28;20881;-71
2022/03/02 01:22:10;;;;;;;3.78;2.65;;;22.90;27.30;;;;;;5114800;28;20384;-71
2022/03/02 01:24:36;;;;;;;3.70;2.90;;;22.90;27.40;;;;;;5112777;28;20473;-71
2022/03/02 01:27:02;;;;;;;4.10;2.85;;;22.90;27.30;;;;;;5113498;28;20380;-71
2022/03/02 01:29:30;;;;;;;3.42;2.58;;;22.80;27.20;;;;;;5114560;28;20715;-70
2022/03/02 01:31:56;;;;;;;3.40;2.58;;;22.90;27.20;;;;;;5114820;28;20384;-71
2022/03/02 01:34:22;;;;;;;4.20;2.78;;;22.90;27.20;;;;;;5114439;28;20442;-71
2022/03/02 01:36:47;;;;;;;3.10;2.60;;;22.90;27.20;;;;;;5114821;28;20380;-71
2022/03/02 01:39:13;;;;;;;3.33;2.70;;;22.90;27.20;;;;;;5114646;28;20827;-71
2022/03/02 01:41:39;;;;;;;3.40;2.70;;;22.90;27.20;;;;;;5113386;28;20384;-72
2022/03/02 01:44:05;;;;;;;3.50;2.70;;;22.90;27.20;;;;;;5114459;28;20473;-72
2022/03/02 01:46:31;;;;;;;3.58;2.63;;;22.80;27.20;;;;;;5112750;28;20487;-71
2022/03/02 01:48:57;;;;;;;3.90;2.70;;;22.80;27.20;;;;;;5113280;28;20727;-71
2022/03/02 01:51:23;;;;;;;4.05;3.00;;;22.80;27.30;;;;;;5114330;28;20383;-71
2022/03/02 01:53:49;;;;;;;3.85;2.85;;;22.80;27.20;;;;;;5114468;28;20878;-71
2022/03/02 01:56:15;;;;;;;3.50;2.75;;;22.80;27.30;;;;;;5114319;28;20387;-71
2022/03/02 01:58:41;;;;;;;4.45;2.83;;;22.80;27.30;;;;;;5113810;27;20931;-71
2022/03/02 02:01:07;;;;;;;3.50;2.80;;;22.80;27.30;;;;;;5113613;27;20381;-71
2022/03/02 02:03:33;;;;;;;3.70;2.80;;;22.70;27.20;;;;;;5113452;28;20491;-71
2022/03/02 02:06:00;;;;;;;3.25;2.80;;;22.80;27.30;;;;;;5114178;28;20416;-72
2022/03/02 02:08:27;;;;;;;3.55;2.55;;;22.70;27.20;;;;;;5113736;28;20452;-71
2022/03/02 02:10:56;;;;;;;3.95;2.60;;;22.70;27.20;;;;;;5112632;28;20395;-71
2022/03/02 02:13:22;;;;;;;4.32;2.58;;;22.70;27.20;;;;;;5112787;28;20476;-71
2022/03/02 02:15:48;;;;;;;3.72;2.78;;;22.80;27.20;;;;;;5114024;28;20382;-70
2022/03/02 02:18:14;;;;;;;3.07;2.53;;;22.70;27.10;;;;;;5112572;28;20392;-72
2022/03/02 02:20:40;;;;;;;3.30;2.75;;;22.70;27.10;;;;;;5112237;28;20385;-71
2022/03/02 02:23:07;;;;;;;4.10;2.70;;;22.70;27.20;;;;;;5112533;28;20492;-71
2022/03/02 02:25:33;;;;;;;4.30;2.70;;;22.70;27.10;;;;;;5112214;28;20451;-71
2022/03/02 02:28:00;;;;;;;3.25;2.58;;;22.70;27.10;;;;;;5112528;28;20403;-72
2022/03/02 02:30:26;;;;;;;3.88;2.38;;;22.70;27.10;;;;;;5113282;28;20392;-71
2022/03/02 02:32:52;;;;;;;3.83;2.80;;;22.70;27.20;;;;;;5112377;28;20392;-71
2022/03/02 02:35:18;;;;;;;3.25;2.50;;;22.70;27.20;;;;;;5113764;28;20396;-72
2022/03/02 02:37:43;;;;;;;3.83;2.63;;;22.70;27.20;;;;;;5112336;28;20437;-72
2022/03/02 02:40:18;;;;;;;3.80;2.50;;;22.60;27.20;;;;;;5113468;28;20392;-71
2022/03/02 02:42:45;;;;;;;4.20;2.67;;;22.70;27.10;;;;;;5113027;28;20377;-71
2022/03/02 02:45:17;;;;;;;2.95;2.50;;;22.70;27.10;;;;;;5113343;28;20415;-71
2022/03/02 02:47:50;;;;;;;2.75;2.08;;;22.70;27.10;;;;;;5112148;28;20411;-71
2022/03/02 02:50:22;;;;;;;4.25;2.40;;;22.70;27.00;;;;;;5112048;28;20407;-71
2022/03/02 02:52:50;;;;;;;3.38;2.40;;;22.70;27.00;;;;;;5113052;28;20388;-71
2022/03/02 02:55:16;;;;;;;2.90;2.40;;;22.60;27.00;;;;;;5113207;28;20854;-71
2022/03/02 02:57:42;;;;;;;3.17;2.30;;;22.60;26.90;;;;;;5112025;28;20418;-71
2022/03/02 03:00:13;;;;;;;3.90;2.50;;;22.60;26.90;;;;;;5112890;28;20461;-71
2022/03/02 03:02:40;;;;;;;2.97;2.58;;;22.60;27.00;;;;;;5112694;28;20380;-71
2022/03/02 03:05:10;;;;;;;3.47;2.70;;;22.50;27.00;;;;;;5111594;28;20412;-71
2022/03/02 03:07:36;;;;;;;3.83;2.70;;;22.50;27.00;;;;;;5112852;28;20467;-72
2022/03/02 03:10:01;;;;;;;2.93;2.40;;;22.50;27.00;;;;;;5111671;28;20521;-71
2022/03/02 03:12:27;;;;;;;2.95;2.20;;;22.50;27.00;;;;;;5111144;28;20383;-72
2022/03/02 03:14:53;;;;;;;3.80;2.60;;;22.50;27.10;;;;;;5111230;28;20414;-71
2022/03/02 03:17:18;;;;;;;3.03;2.42;;;22.50;27.10;;;;;;5112546;28;20392;-71
2022/03/02 03:19:44;;;;;;;2.93;2.40;;;22.50;27.10;;;;;;5112580;28;20410;-71
2022/03/02 03:22:09;;;;;;;3.17;2.53;;;22.40;27.10;;;;;;5112661;28;20376;-71
2022/03/02 03:24:35;;;;;;;3.10;2.43;;;22.40;27.50;;;;;;5110824;28;20493;-71
2022/03/02 03:27:01;;;;;;;3.13;2.50;;;22.40;27.10;;;;;;5111215;28;20796;-71
2022/03/02 03:29:27;;;;;;;3.37;2.60;;;22.40;27.00;;;;;;5112703;28;20388;-71
2022/03/02 03:31:53;;;;;;;3.13;2.53;;;22.40;27.10;;;;;;5110972;28;20388;-71
2022/03/02 03:34:18;;;;;;;3.07;2.50;;;22.40;27.00;;;;;;5112464;28;20393;-71
2022/03/02 03:36:44;;;;;;;3.20;2.60;;;22.40;27.00;;;;;;5111811;27;20388;-71
2022/03/02 03:39:10;;;;;;;3.53;2.50;;;22.40;27.00;;;;;;5110869;28;20396;-71
2022/03/02 03:41:36;;;;;;;3.17;2.60;;;22.40;27.00;;;;;;5111091;28;20715;-71
2022/03/02 03:44:02;;;;;;;3.80;2.67;;;22.40;26.90;;;;;;5110933;28;20442;-71
2022/03/02 03:46:27;;;;;;;3.50;2.70;;;22.40;26.90;;;;;;5112936;28;20396;-72
2022/03/02 03:48:54;;;;;;;4.20;2.70;;;22.40;26.80;;;;;;5113512;28;20388;-71
2022/03/02 03:51:19;;;;;;;3.20;2.53;;;22.40;26.80;;;;;;5113157;28;20372;-71
2022/03/02 03:53:45;;;;;;;3.28;2.50;;;22.40;26.90;;;;;;5112137;28;20460;-72
2022/03/02 03:56:11;;;;;;;3.60;2.73;;;22.40;26.90;;;;;;5111812;28;20449;-71
2022/03/02 03:58:37;;;;;;;3.38;2.60;;;22.40;26.90;;;;;;5110360;28;20391;-70
2022/03/02 04:01:03;;;;;;;4.50;2.80;;;22.40;26.90;;;;;;5112380;28;20403;-71
2022/03/02 04:03:28;;;;;;;3.53;2.80;;;22.40;26.90;;;;;;5112322;28;20492;-71
2022/03/02 04:05:54;;;;;;;4.18;2.88;;;22.40;26.90;;;;;;5111972;28;20392;-71
2022/03/02 04:08:22;;;;;;;4.47;2.70;;;22.30;26.90;;;;;;5110629;28;20384;-71
2022/03/02 04:10:49;;;;;;;4.75;2.90;;;22.20;26.70;;;;;;5111369;28;20424;-72
2022/03/02 04:13:15;;;;;;;5.10;2.90;;;22.20;26.80;;;;;;5111874;28;20384;-71
2022/03/02 04:15:40;;;;;;;5.63;2.80;;;22.30;27.50;;;;;;5111891;28;20380;-72
2022/03/02 04:18:07;;;;;;;5.40;2.90;;;22.40;28.20;;;;;;5113107;28;20445;-71
2022/03/02 04:20:35;;;;;;;7.13;3.22;;;22.40;28.20;;;;;;5113742;28;20383;-72
2022/03/02 04:23:02;;;;;;;5.50;2.80;;;22.40;28.50;;;;;;5113330;28;20385;-72
2022/03/02 04:25:28;;;;;;;5.22;2.85;;;22.40;28.70;;;;;;5114354;28;20388;-70
2022/03/02 04:27:54;;;;;;;6.97;3.30;;;22.40;29.30;;;;;;5116573;28;20388;-70
2022/03/02 04:30:20;;;;;;;4.82;3.25;;;22.40;29.20;;;;;;5117015;28;20757;-70
2022/03/02 04:32:46;;;;;;;8.38;3.10;;;22.40;29.70;;;;;;5115761;28;20425;-70
2022/03/02 04:35:13;;;;;;;5.00;2.80;;;22.50;30.00;;;;;;5115941;28;20810;-70
2022/03/02 04:37:39;;;;;;;8.90;2.90;;;22.60;29.60;;;;;;5115904;28;20422;-70
2022/03/02 04:40:11;;;;;;;6.47;3.03;;;22.60;29.60;;;;;;5115873;28;20888;-71
2022/03/02 04:42:37;;;;;;;6.38;2.67;;;22.60;29.00;;;;;;5113403;28;20384;-71
2022/03/02 04:45:04;;;;;;;6.45;2.58;;;22.60;29.80;;;;;;5113468;28;20848;-70
2022/03/02 04:47:30;;;;;;;8.25;3.10;;;22.50;29.30;;;;;;5113075;28;20428;-70
2022/03/02 04:49:56;;;;;;;13.57;2.83;;;22.50;29.70;;;;;;5114005;28;20818;-70
2022/03/02 04:52:21;;;;;;;5.15;2.50;;;22.50;29.40;;;;;;5114112;28;20372;-71
2022/03/02 04:55:05;;;;;;;7.17;2.87;;;22.60;29.60;;;;;;5114248;28;20471;-71
2022/03/02 04:57:31;;;;;;;11.52;3.00;;;22.60;29.60;;;;;;5115278;28;20467;-70
2022/03/02 04:59:57;;;;;;;9.00;2.60;;;22.50;29.90;;;;;;5116138;28;20399;-70
2022/03/02 05:02:23;;;;;;;13.15;2.88;;;22.50;30.00;;;;;;5114956;28;20425;-70
2022/03/02 05:04:49;;;;;;;7.17;3.00;;;22.50;29.50;;;;;;5114322;28;20407;-71
2022/03/02 05:07:16;;;;;;;9.57;2.95;;;22.50;29.70;;;;;;5115149;28;20788;-70
2022/03/02 05:09:42;;;;;;;10.80;3.17;;;22.60;29.00;;;;;;5115167;28;20385;-70
2022/03/02 05:12:08;;;;;;;9.65;3.38;;;22.50;28.50;;;;;;5115125;27;20738;-70
2022/03/02 05:14:34;;;;;;;8.93;2.78;;;22.40;28.80;;;;;;5114311;28;20567;-71
2022/03/02 05:17:00;;;;;;;10.80;2.90;;;22.40;28.90;;;;;;5114990;28;20467;-70
2022/03/02 05:19:26;;;;;;;7.60;2.77;;;22.30;28.70;;;;;;5115099;28;20384;-71
2022/03/02 05:21:51;;;;;;;7.95;2.72;;;22.40;28.60;;;;;;5115057;28;20385;-70
2022/03/02 05:24:17;;;;;;;8.20;2.87;;;22.40;28.60;;;;;;5114904;28;21000;-71
2022/03/02 05:26:43;;;;;;;4.80;2.85;;;22.30;27.70;;;;;;5114509;28;20387;-70
2022/03/02 05:29:08;;;;;;;6.53;3.10;;;22.40;27.40;;;;;;5114837;28;20445;-71
2022/03/02 05:31:34;;;;;;;9.05;3.10;;;22.40;27.20;;;;;;5112553;28;20380;-71
2022/03/02 05:34:00;;;;;;;5.90;2.87;;;22.40;27.20;;;;;;5112906;28;20430;-71
2022/03/02 05:36:26;;;;;;;6.38;2.50;;;22.30;27.30;;;;;;5114566;28;20448;-71
2022/03/02 05:38:52;;;;;;;7.05;2.70;;;22.30;27.50;;;;;;5114308;28;20416;-72
2022/03/02 05:41:18;;;;;;;7.28;2.80;;;22.30;27.60;;;;;;5113455;28;20873;-72
2022/03/02 05:43:44;;;;;;;5.65;2.60;;;22.30;27.40;;;;;;5114578;28;20424;-72
2022/03/02 05:46:10;;;;;;;5.27;2.50;;;22.30;27.30;;;;;;5114404;28;20881;-70
2022/03/02 05:48:36;;;;;;;4.18;2.60;;;22.30;27.20;;;;;;5114106;28;20384;-71
2022/03/02 05:51:02;;;;;;;6.38;2.42;;;22.20;27.30;;;;;;5114469;28;20376;-72
2022/03/02 05:53:27;;;;;;;4.07;2.33;;;22.10;27.40;;;;;;5113094;28;20380;-70
2022/03/02 05:55:53;;;;;;;5.83;2.53;;;22.10;27.50;;;;;;5114474;28;20388;-71
2022/03/02 05:58:19;;;;;;;5.00;2.75;;;22.20;27.40;;;;;;5114080;28;20848;-70
2022/03/02 06:00:44;;;;;;;4.23;2.60;;;22.10;27.30;;;;;;5113846;28;20476;-70
2022/03/02 06:03:10;;;;;;;4.10;2.80;;;22.10;27.50;;;;;;5114181;28;20380;-70
2022/03/02 06:05:36;;;;;;;4.97;2.50;;;22.10;27.60;;;;;;5112739;28;20399;-71
2022/03/02 06:08:01;;;;;;;5.80;2.65;;;22.10;27.50;;;;;;5114188;28;20387;-71
2022/03/02 06:10:27;;;;;;;4.10;2.80;;;22.10;27.40;;;;;;5112765;28;20389;-70
2022/03/02 06:12:53;;;;;;;3.47;2.50;;;22.10;27.40;;;;;;5113615;28;20386;-72
2022/03/02 06:15:19;;;;;;;4.03;2.47;;;22.10;27.40;;;;;;5114060;27;20396;-70
2022/03/02 06:17:45;;;;;;;3.72;2.90;;;22.10;27.30;;;;;;5113910;28;20733;-70
2022/03/02 06:20:11;;;;;;;3.30;2.80;;;22.00;27.30;;;;;;5112496;28;20441;-72
2022/03/02 06:22:37;;;;;;;3.72;2.45;;;22.00;27.30;;;;;;5112218;28;20416;-71
2022/03/02 06:25:05;;;;;;;3.92;2.72;;;22.00;27.30;;;;;;5112356;28;20412;-71
2022/03/02 06:27:30;;;;;;;4.07;2.50;;;22.10;27.30;;;;;;5113866;28;20388;-70
2022/03/02 06:29:56;;;;;;;3.85;2.60;;;22.00;27.30;;;;;;5113684;28;20389;-70
2022/03/02 06:32:22;;;;;;;4.30;2.90;;;22.00;27.20;;;;;;5112256;28;20376;-70
2022/03/02 06:34:47;;;;;;;4.65;3.13;;;22.00;27.30;;;;;;5111611;28;20381;-70
2022/03/02 06:37:13;;;;;;;5.27;3.00;;;22.00;27.30;;;;;;5112162;28;20796;-72
2022/03/02 06:39:39;;;;;;;4.50;2.83;;;21.90;27.20;;;;;;5113584;28;20393;-71
2022/03/02 06:42:27;;;;;;;5.47;3.00;;;21.90;27.20;;;;;;5113483;27;20924;-72
2022/03/02 06:45:10;;;;;;;3.55;3.00;;;21.90;27.20;;;;;;5112896;28;20423;-70
2022/03/02 06:47:52;;;;;;;4.80;3.00;;;21.90;27.20;;;;;;5112548;28;20444;-71
2022/03/02 06:50:23;;;;;;;4.40;2.88;;;21.90;27.20;;;;;;5113097;28;20878;-70
2022/03/02 06:52:54;;;;;;;4.22;2.83;;;21.90;27.30;;;;;;5112546;28;20872;-70
2022/03/02 06:55:20;;;;;;;4.05;3.00;;;21.90;27.10;;;;;;5111923;28;20381;-71
2022/03/02 06:57:51;;;;;;;3.60;2.90;;;21.90;27.10;;;;;;5113179;28;20387;-72
2022/03/02 07:00:17;;;;;;;3.72;2.80;;;21.90;27.10;;;;;;5111829;28;20384;-71
2022/03/02 07:02:51;;;;;;;3.38;2.83;;;21.90;27.10;;;;;;5112595;28;20419;-71
2022/03/02 07:05:18;;;;;;;4.00;2.85;;;21.80;27.10;;;;;;5113003;28;20420;-71
2022/03/02 07:07:45;;;;;;;3.50;3.00;;;21.90;27.50;;;;;;5111638;28;20414;-71
2022/03/02 07:10:11;;;;;;;3.60;2.83;;;21.90;27.00;;;;;;5112868;28;20392;-71
2022/03/02 07:12:38;;;;;;;3.80;2.77;;;21.80;27.10;;;;;;5112410;28;20376;-70
2022/03/02 07:15:04;;;;;;;3.30;2.88;;;21.80;27.10;;;;;;5112675;28;20376;-71
2022/03/02 07:17:32;;;;;;;3.40;2.50;;;21.80;27.10;;;;;;5111500;28;20395;-72
2022/03/02 07:19:59;;;;;;;3.35;2.70;;;21.80;27.20;;;;;;5112785;28;20946;-72
2022/03/02 07:22:31;;;;;;;3.60;2.90;;;21.80;27.20;;;;;;5112093;27;20388;-71
2022/03/02 07:25:10;;;;;;;3.58;2.80;;;21.80;27.10;;;;;;5112120;28;20436;-71
2022/03/02 07:27:38;;;;;;;3.60;2.63;;;21.80;27.10;;;;;;5112622;28;20789;-70
2022/03/02 07:30:06;;;;;;;3.17;2.50;;;21.80;27.10;;;;;;5112513;28;20389;-70
2022/03/02 07:32:33;;;;;;;3.40;2.67;;;21.80;27.10;;;;;;5111187;28;20388;-72
2022/03/02 07:35:03;;;;;;;3.40;2.50;;;21.80;27.10;;;;;;5110718;28;20438;-70
2022/03/02 07:37:29;;;;;;;3.20;2.40;;;21.80;27.10;;;;;;5111181;28;20430;-70
2022/03/02 07:39:55;;;;;;;3.28;2.47;;;21.80;27.20;;;;;;5110935;28;20420;-71
2022/03/02 07:42:21;;;;;;;3.00;2.40;;;21.80;27.20;;;;;;5112459;28;20376;-70
2022/03/02 07:44:49;;;;;;;3.25;2.60;;;21.80;27.10;;;;;;5110551;28;20908;-72
2022/03/02 07:47:15;;;;;;;3.03;2.30;;;21.70;27.10;;;;;;5110802;28;20450;-72
2022/03/02 07:49:41;;;;;;;3.53;2.30;;;21.80;27.20;;;;;;5112372;28;20388;-72
2022/03/02 07:52:09;;;;;;;2.92;2.30;;;21.80;27.20;;;;;;5110854;28;20387;-71
2022/03/02 07:54:39;;;;;;;2.92;2.47;;;21.80;27.10;;;;;;5111005;28;20469;-71
2022/03/02 07:57:09;;;;;;;3.50;2.42;;;21.80;27.20;;;;;;5110643;28;20441;-71
2022/03/02 07:59:40;;;;;;;2.80;2.40;;;21.80;27.20;;;;;;5112068;28;20745;-71
2022/03/02 08:02:10;;;;;;;2.90;2.50;;;21.80;27.20;;;;;;5111841;28;20434;-72
2022/03/02 08:04:36;;;;;;;2.75;2.22;;;21.80;27.10;;;;;;5111843;28;20408;-71
2022/03/02 08:07:03;;;;;;;3.17;2.33;;;21.80;27.10;;;;;;5110187;28;20469;-72
2022/03/02 08:09:31;;;;;;;2.70;2.10;;;21.80;27.10;;;;;;5110030;28;20384;-72
2022/03/02 08:12:01;;;;;;;3.13;2.22;;;21.80;27.20;;;;;;5112078;28;20382;-70
2022/03/02 08:14:31;;;;;;;2.80;2.38;;;21.80;27.10;;;;;;5110654;28;20957;-71
2022/03/02 08:16:57;;;;;;;3.00;2.50;;;21.80;27.00;;;;;;5110201;28;20503;-71
2022/03/02 08:19:23;;;;;;;2.72;2.10;;;21.80;27.00;;;;;;5111913;28;20411;-71
2022/03/02 08:22:12;;;;;;;2.90;2.35;;;21.80;27.10;;;;;;5110880;28;20877;-71
2022/03/02 08:24:43;;;;;;;2.50;2.00;;;21.80;27.00;;;;;;5111404;28;20455;-70
2022/03/02 08:27:12;;;;;;;2.92;2.50;;;21.90;27.00;;;;;;5111868;28;20445;-70
2022/03/02 08:29:39;;;;;;;2.80;2.30;;;21.90;27.10;;;;;;5110514;28;20420;-70
2022/03/02 08:32:06;;;;;;;3.42;2.40;;;21.90;27.10;;;;;;5110457;28;20931;-70
2022/03/02 08:34:33;;;;;;;3.10;2.60;;;21.90;26.90;;;;;;5111697;28;20396;-72
2022/03/02 08:37:01;;;;;;;3.28;2.67;;;21.90;26.90;;;;;;5109973;28;20797;-71
2022/03/02 08:39:27;;;;;;;2.70;2.40;;;21.90;26.90;;;;;;5111672;28;20388;-70
2022/03/02 08:41:53;;;;;;;3.45;2.50;;;22.00;26.90;;;;;;5111734;28;20391;-72
2022/03/02 08:44:20;;;;;;;2.90;2.53;;;22.00;26.90;;;;;;5110196;28;20408;-72
2022/03/02 08:46:50;;;;;;;2.83;2.38;;;22.00;26.90;;;;;;5110828;28;20403;-72
2022/03/02 08:49:19;;;;;;;3.08;2.40;;;22.00;27.30;;;;;;5111630;28;20878;-70
2022/03/02 08:51:45;;;;;;;3.03;2.40;;;22.10;26.90;;;;;;5111593;28;20959;-69
2022/03/02 08:54:13;;;;;;;2.97;2.50;;;22.10;26.80;;;;;;5110192;28;20396;-70
2022/03/02 08:56:40;;;;;;;2.72;2.38;;;22.20;26.80;;;;;;5111559;28;20400;-71
2022/03/02 08:59:11;;;;;;;2.78;2.47;;;22.20;26.70;;;;;;5109879;28;20400;-72
2022/03/02 09:01:47;;;;;;;3.23;2.60;;;22.20;26.70;;;;;;5110310;28;20923;-72
2022/03/02 09:04:16;;;;;;;2.85;2.30;;;22.20;26.70;;;;;;5111506;28;20415;-72
2022/03/02 09:06:42;;;;;;;2.83;2.42;;;22.20;26.70;;;;;;5109860;28;20739;-72
2022/03/02 09:09:08;;;;;;;2.83;2.28;;;22.30;26.70;;;;;;5111181;28;20411;-70
2022/03/02 09:11:34;;;;;;;2.75;2.20;;;23.60;27.30;;;;;;5111299;28;20447;-70
2022/03/02 09:14:01;;;;;;;2.93;2.10;;;22.40;26.70;;;;;;5114253;28;20401;-70
2022/03/02 09:16:27;;;;;;;2.45;2.10;;;22.70;26.80;;;;;;5113903;28;20384;-70
2022/03/02 09:18:53;;;;;;;2.83;2.28;;;22.50;26.70;;;;;;5113479;27;20765;-70
2022/03/02 09:21:20;;;;;;;4.82;2.30;;;22.50;26.80;;;;;;5112292;28;20885;-70
2022/03/02 09:23:47;;;;;;;3.30;2.27;;;22.40;27.00;;;;;;5113788;28;20407;-72
2022/03/02 09:26:16;;;;;;;4.40;2.50;;;22.40;27.50;;;;;;5110831;28;20388;-70
2022/03/02 09:28:47;;;;;;;4.63;2.30;;;22.50;27.20;;;;;;5112024;28;20385;-70
2022/03/02 09:31:15;;;;;;;3.75;2.47;;;22.50;27.20;;;;;;5112319;28;20400;-72
2022/03/02 09:33:43;;;;;;;4.18;2.33;;;22.50;27.20;;;;;;5112260;28;20419;-71
2022/03/02 09:36:11;;;;;;;2.60;2.20;;;22.60;27.40;;;;;;5112005;28;20388;-70
2022/03/02 09:38:39;;;;;;;3.22;2.35;;;22.60;27.10;;;;;;5112402;28;20437;-72
2022/03/02 09:41:16;;;;;;;5.30;2.40;;;22.70;27.10;;;;;;5111606;28;20417;-70
2022/03/02 09:43:46;;;;;;;3.53;2.20;;;22.70;27.00;;;;;;5112212;28;20924;-70
2022/03/02 09:46:18;;;;;;;3.13;2.10;;;22.70;27.00;;;;;;5113097;28;20440;-69
2022/03/02 09:48:50;;;;;;;2.78;2.22;;;22.70;27.00;;;;;;5112967;28;20896;-70
2022/03/02 09:51:23;;;;;;;2.90;2.20;;;22.60;27.00;;;;;;5112710;28;20925;-70
2022/03/02 09:53:54;;;;;;;3.10;2.33;;;22.50;26.80;;;;;;5111883;28;20384;-70
2022/03/02 09:56:23;;;;;;;3.20;2.20;;;22.60;26.90;;;;;;5114352;28;20384;-70
2022/03/02 09:58:53;;;;;;;2.63;2.13;;;22.60;26.90;;;;;;5112633;28;20467;-70
2022/03/02 10:01:24;;;;;;;2.33;1.90;;;22.60;26.90;;;;;;5112911;28;20385;-70
2022/03/02 10:03:52;;;;;;;2.47;1.90;;;22.60;26.80;;;;;;5111379;28;20507;-70
2022/03/02 10:06:20;;;;;;;2.97;2.33;;;22.60;26.80;;;;;;5108945;28;20376;-70
2022/03/02 10:08:52;;;;;;;2.78;2.00;;;22.60;26.90;;;;;;5111674;28;20381;-70
2022/03/02 10:11:23;;;;;;;2.83;2.00;;;22.70;26.80;;;;;;5108773;28;20403;-69
2022/03/02 10:13:50;;;;;;;4.00;2.30;;;22.60;26.70;;;;;;5111897;28;20472;-69
2022/03/02 10:16:22;;;;;;;3.08;2.08;;;22.60;26.80;;;;;;5112839;28;20525;-70
2022/03/02 10:18:56;;;;;;;2.65;2.20;;;22.60;26.70;;;;;;5113693;28;20459;-70
2022/03/02 10:21:31;;;;;;;2.72;2.30;;;22.60;26.70;;;;;;5112621;28;20419;-70
2022/03/02 10:24:02;;;;;;;2.50;2.10;;;22.60;26.80;;;;;;5107241;28;20443;-72
2022/03/02 10:26:31;;;;;;;3.10;1.90;;;22.60;26.80;;;;;;5112006;28;20388;-72
2022/03/02 10:29:03;;;;;;;2.50;1.90;;;22.60;26.70;;;;;;5111849;28;20479;-70
2022/03/02 10:31:58;;;;;;;2.70;2.00;;;22.60;26.70;;;;;;5112742;28;20384;-72
2022/03/02 10:34:32;;;;;;;2.43;1.93;;;22.60;26.60;;;;;;5112349;28;20464;-71
2022/03/02 10:37:36;;;;;;;2.70;2.10;;;22.70;26.70;;;;;;5113029;28;20396;-72
2022/03/02 10:40:12;;;;;;;2.70;2.10;;;22.60;26.70;;;;;;5108740;28;20437;-72
2022/03/02 10:42:57;;;;;;;2.45;1.90;;;22.70;26.60;;;;;;5109816;28;20390;-73
2022/03/02 10:45:47;;;;;;;3.10;2.20;;;22.70;26.70;;;;;;5111887;28;20444;-70
2022/03/02 10:48:42;;;;;;;2.60;2.03;;;22.70;26.60;;;;;;5110554;28;20401;-72
2022/03/02 10:51:10;;;;;;;2.50;2.00;;;22.70;26.60;;;;;;5095808;28;20383;-71
2022/03/02 10:53:40;;;;;;;2.92;2.00;;;22.70;26.60;;;;;;5110979;28;20496;-72
2022/03/02 10:56:08;;;;;;;2.80;2.15;;;22.70;26.60;;;;;;5111846;28;20396;-70
2022/03/02 10:58:36;;;;;;;2.40;2.00;;;22.70;26.50;;;;;;5110653;28;20843;-70
2022/03/02 11:01:05;;;;;;;2.60;2.05;;;22.70;26.50;;;;;;5107241;28;20479;-70
2022/03/02 11:03:36;;;;;;;3.20;2.20;;;22.80;26.60;;;;;;5111640;28;20903;-70
2022/03/02 11:06:06;;;;;;;2.17;1.88;;;22.80;26.50;;;;;;5107632;28;20432;-69
2022/03/02 11:08:34;;;;;;;2.38;1.92;;;22.70;26.50;;;;;;5111307;28;20380;-70
2022/03/02 11:11:01;;;;;;;2.60;1.75;;;22.70;26.50;;;;;;5111075;28;20388;-70
2022/03/02 11:13:28;;;;;;;2.35;1.80;;;22.80;26.40;;;;;;5111524;28;20376;-73
2022/03/02 11:15:56;;;;;;;2.20;1.80;;;22.80;26.40;;;;;;5110537;28;20469;-70
2022/03/02 11:18:42;;;;;;;2.38;1.90;;;22.80;26.40;;;;;;5108509;28;20798;-72
2022/03/02 11:21:11;;;;;;;2.40;1.75;;;22.80;26.40;;;;;;5109743;28;20377;-72
2022/03/02 11:23:57;;;;;;;3.20;1.90;;;22.80;26.40;;;;;;5110885;28;21137;-70
2022/03/02 11:26:28;;;;;;;2.42;1.80;;;22.80;26.40;;;;;;5109581;28;20470;-69
2022/03/02 11:28:59;;;;;;;2.30;1.80;;;22.80;26.30;;;;;;5111865;28;20381;-69
2022/03/02 11:31:29;;;;;;;2.17;1.80;;;22.80;26.30;;;;;;5110871;28;20885;-71
2022/03/02 11:34:12;;;;;;;2.63;1.80;;;22.80;26.20;;;;;;5112323;28;20384;-70
2022/03/02 11:36:40;;;;;;;2.35;1.75;;;22.80;26.30;;;;;;5112497;28;20388;-72
2022/03/02 11:39:08;;;;;;;2.28;1.83;;;22.90;26.20;;;;;;5111936;28;20877;-72
2022/03/02 11:41:39;;;;;;;2.22;1.90;;;22.90;26.20;;;;;;5110980;28;20449;-70
2022/03/02 11:44:30;;;;;;;1.93;1.70;;;22.90;26.20;;;;;;5106349;28;20908;-70
2022/03/02 11:46:58;;;;;;;2.20;1.80;;;22.90;26.10;;;;;;5110425;28;20433;-69
2022/03/02 11:49:42;;;;;;;2.58;1.90;;;22.90;26.20;;;;;;5112271;28;20731;-72
2022/03/02 11:52:10;;;;;;;2.65;1.85;;;22.90;26.10;;;;;;5112076;28;20426;-70
2022/03/02 11:54:42;;;;;;;2.35;1.90;;;22.90;26.10;;;;;;5110977;28;20873;-70
2022/03/02 11:57:08;;;;;;;2.35;1.83;;;23.00;26.10;;;;;;5110349;28;20404;-72
2022/03/02 11:59:36;;;;;;;2.53;1.90;;;23.00;26.10;;;;;;5108705;28;20395;-71
2022/03/02 12:02:15;;;;;;;2.05;1.63;;;23.00;26.20;;;;;;5109671;28;20762;-70
2022/03/02 12:04:42;;;;;;;1.92;1.60;;;23.00;26.20;;;;;;5108880;28;20415;-69
2022/03/02 12:07:08;;;;;;;2.40;1.85;;;23.00;26.20;;;;;;5105636;28;20377;-70
2022/03/02 12:09:40;;;;;;;2.30;1.83;;;23.00;26.20;;;;;;5101612;28;20465;-70
2022/03/02 12:12:12;;;;;;;2.87;1.80;;;22.90;26.10;;;;;;5107009;28;20394;-71
2022/03/02 12:14:45;;;;;;;2.60;1.80;;;22.90;26.20;;;;;;5110256;28;20392;-70
2022/03/02 12:17:21;;;;;;;2.28;1.77;;;23.00;26.20;;;;;;5108189;28;20380;-69
2022/03/02 12:19:50;;;;;;;2.25;1.75;;;23.00;26.20;;;;;;5107323;28;20445;-70
2022/03/02 12:22:17;;;;;;;2.20;1.70;;;23.00;26.20;;;;;;5108573;28;20901;-70
2022/03/02 12:24:45;;;;;;;2.50;1.75;;;23.00;26.20;;;;;;5108704;28;20422;-72
2022/03/02 12:27:12;;;;;;;2.72;1.73;;;23.00;26.70;;;;;;5109588;28;20874;-73
2022/03/02 12:29:40;;;;;;;2.22;1.50;;;22.90;26.20;;;;;;5109358;28;20488;-72
2022/03/02 12:32:08;;;;;;;2.70;1.70;;;22.90;26.20;;;;;;5109548;28;20461;-69
2022/03/02 12:34:46;;;;;;;2.20;1.42;;;22.90;26.30;;;;;;5110215;28;20416;-71
2022/03/02 12:37:12;;;;;;;2.10;1.75;;;23.00;26.50;;;;;;5107864;28;20379;-73
2022/03/02 12:39:40;;;;;;;2.38;1.73;;;22.90;26.50;;;;;;5110017;28;20957;-73
2022/03/02 12:42:08;;;;;;;2.42;1.70;;;22.90;26.40;;;;;;5125049;28;20472;-73
2022/03/02 12:44:54;;;;;;;2.75;1.80;;;22.90;26.40;;;;;;5109901;28;20941;-73
2022/03/02 12:47:25;;;;;;;1.98;1.77;;;22.90;26.40;;;;;;5112042;28;20407;-71
2022/03/02 12:49:51;;;;;;;2.92;1.90;;;22.90;26.40;;;;;;5112697;28;20762;-74
2022/03/02 12:52:19;;;;;;;2.42;1.67;;;22.90;26.30;;;;;;5112678;28;20396;-74